Time;durP1;ratioP1;P1;durP2;ratioP2;P2;SDS_P1;SDS_P2;PMS_P1;PMS_P2;Temp;Humidity;BMP_temperature;BMP_pressure;BME280_temperature;BME280_humidity;BME280_pressure;Samples;Min_cycle;Max_cycle;Signal;HPM_P1;HPM_P2
2022/10/07 00:01:36;;;;;;;4.72;3.67;;;;;;;;;;5062242;28;20223;-69
2022/10/07 00:04:04;;;;;;;4.63;4.20;;;;;;;;;;5061420;28;20772;-68
2022/10/07 00:06:31;;;;;;;4.38;3.97;;;;;;;;;;5061608;28;21610;-67
2022/10/07 00:08:58;;;;;;;5.97;3.60;;;;;;;;;;5057602;28;20230;-68
2022/10/07 00:11:25;;;;;;;5.38;4.85;;;;;;;;;;5063144;28;20925;-68
2022/10/07 00:13:53;;;;;;;8.77;4.35;;;;;;;;;;5055596;28;20643;-68
2022/10/07 00:16:23;;;;;;;18.92;9.18;;;;;;;;;;5058505;28;20196;-69
2022/10/07 00:18:50;;;;;;;11.15;7.10;;;;;;;;;;5054071;28;20198;-68
2022/10/07 00:21:18;;;;;;;17.67;11.80;;;;;;;;;;5061467;28;20200;-69
2022/10/07 00:23:46;;;;;;;23.27;13.02;;;;;;;;;;5053844;28;20246;-68
2022/10/07 00:26:14;;;;;;;16.08;9.02;;;;;;;;;;5056275;28;20906;-68
2022/10/07 00:28:41;;;;;;;26.60;13.18;;;;;;;;;;5058918;28;20225;-68
2022/10/07 00:31:08;;;;;;;15.45;10.35;;;;;;;;;;5062062;28;20271;-68
2022/10/07 00:33:36;;;;;;;29.42;15.38;;;;;;;;;;5061496;28;20565;-69
2022/10/07 00:36:06;;;;;;;36.20;17.38;;;;;;;;;;5059510;28;20216;-69
2022/10/07 00:38:34;;;;;;;25.08;12.90;;;;;;;;;;5061336;28;20212;-69
2022/10/07 00:41:00;;;;;;;17.42;10.48;;;;;;;;;;5063349;28;20205;-69
2022/10/07 00:43:30;;;;;;;16.55;9.73;;;;;;;;;;5064200;28;20204;-69
2022/10/07 00:45:57;;;;;;;10.27;7.15;;;;;;;;;;5064097;28;20204;-68
2022/10/07 00:48:27;;;;;;;9.43;6.80;;;;;;;;;;5063260;28;20270;-68
2022/10/07 00:50:56;;;;;;;9.73;6.75;;;;;;;;;;5061031;28;20205;-69
2022/10/07 00:53:23;;;;;;;8.15;5.70;;;;;;;;;;5061611;28;20261;-67
2022/10/07 00:55:51;;;;;;;6.57;5.75;;;;;;;;;;5056588;28;20205;-68
2022/10/07 00:58:18;;;;;;;12.70;7.63;;;;;;;;;;5059125;28;20269;-68
2022/10/07 01:00:44;;;;;;;13.93;8.15;;;;;;;;;;5060578;28;20197;-68
2022/10/07 01:03:11;;;;;;;8.48;7.00;;;;;;;;;;5060718;28;20216;-68
2022/10/07 01:05:38;;;;;;;7.22;5.80;;;;;;;;;;5062649;28;20999;-67
2022/10/07 01:08:04;;;;;;;8.23;6.20;;;;;;;;;;5060003;28;20367;-68
2022/10/07 01:10:33;;;;;;;6.20;5.57;;;;;;;;;;5061667;28;20238;-69
2022/10/07 01:13:04;;;;;;;8.05;5.97;;;;;;;;;;5064144;27;20205;-69
2022/10/07 01:15:34;;;;;;;5.88;5.15;;;;;;;;;;5063882;27;20212;-68
2022/10/07 01:18:05;;;;;;;12.57;5.38;;;;;;;;;;5065133;27;20204;-69
2022/10/07 01:20:34;;;;;;;9.57;5.55;;;;;;;;;;5064864;27;20224;-69
2022/10/07 01:23:24;;;;;;;6.28;5.25;;;;;;;;;;5066000;27;20210;-69
2022/10/07 01:25:58;;;;;;;7.93;5.82;;;;;;;;;;5041887;27;20234;-69
2022/10/07 01:28:29;;;;;;;8.30;5.95;;;;;;;;;;5061637;27;20258;-70
2022/10/07 01:30:58;;;;;;;10.18;6.28;;;;;;;;;;5060960;27;20232;-70
2022/10/07 01:33:27;;;;;;;7.70;6.47;;;;;;;;;;5063681;27;20233;-70
2022/10/07 01:35:55;;;;;;;11.05;6.10;;;;;;;;;;5064122;27;20240;-70
2022/10/07 01:38:25;;;;;;;6.88;6.18;;;;;;;;;;5061874;27;20421;-69
2022/10/07 01:40:56;;;;;;;7.50;5.85;;;;;;;9.36;nan;96215.34;5061643;27;20221;-70
2022/10/07 01:43:23;;;;;;;8.05;6.60;;;;;;;;;;5062611;27;20197;-70
2022/10/07 01:45:53;;;;;;;12.90;7.43;;;;;;;;;;5068338;27;20288;-70
2022/10/07 01:48:19;;;;;;;11.85;7.25;;;;;;;;;;5069266;27;20205;-70
2022/10/07 01:50:47;;;;;;;7.15;6.30;;;;;;;;;;5065849;27;20246;-69
2022/10/07 01:53:21;;;;;;;9.27;6.25;;;;;;;;;;5066557;27;20203;-69
2022/10/07 01:55:56;;;;;;;10.23;6.30;;;;;;;;;;5065572;27;20209;-70
2022/10/07 01:58:30;;;;;;;8.00;7.20;;;;;;;;;;5066280;27;20208;-70
2022/10/07 02:01:03;;;;;;;8.32;6.93;;;;;;;;;;5065186;27;20201;-71
2022/10/07 02:03:38;;;;;;;13.55;7.13;;;;;;;;;;5067817;27;22471;-70
2022/10/07 02:06:08;;;;;;;16.65;8.65;;;;;;;;;;5068672;27;20705;-70
2022/10/07 02:08:37;;;;;;;8.52;6.88;;;;;;;;;;5065086;27;20682;-71
2022/10/07 02:11:11;;;;;;;11.10;7.07;;;;;;;;;;5062445;27;20243;-70
2022/10/07 02:13:42;;;;;;;9.65;6.57;;;;;;;;;;5064377;27;21734;-69
2022/10/07 02:16:15;;;;;;;12.05;6.95;;;;;;;;;;5066395;27;20339;-69
2022/10/07 02:18:43;;;;;;;14.00;8.73;;;;;;;;;;5063385;27;20265;-69
2022/10/07 02:21:10;;;;;;;17.95;8.95;;;;;;;;;;5065379;27;20201;-70
2022/10/07 02:23:38;;;;;;;11.32;9.23;;;;;;;;;;5065637;27;20272;-71
2022/10/07 02:26:06;;;;;;;19.90;9.35;;;;;;;;;;5065521;27;20209;-69
2022/10/07 02:28:34;;;;;;;14.18;9.63;;;;;;;;;;5065034;27;20205;-70
2022/10/07 02:31:03;;;;;;;12.75;8.93;;;;;;;;;;5064280;27;21283;-70
2022/10/07 02:33:32;;;;;;;14.60;8.38;;;;;;;;;;5063719;27;20205;-70
2022/10/07 02:35:59;;;;;;;16.65;8.00;;;;;;;;;;5067549;27;20229;-70
2022/10/07 02:38:26;;;;;;;20.17;9.13;;;;;;;;;;5060797;28;20270;-70
2022/10/07 02:40:57;;;;;;;14.55;7.90;;;;;;;;;;5063295;27;20565;-70
2022/10/07 02:43:27;;;;;;;20.60;8.63;;;;;;;;;;5065085;27;20228;-70
2022/10/07 02:45:57;;;;;;;16.67;8.75;;;;;;;;;;5065165;27;20612;-70
2022/10/07 02:48:27;;;;;;;21.85;8.70;;;;;;;;;;5062731;27;22038;-70
2022/10/07 02:50:57;;;;;;;18.42;7.72;;;;;;;;;;5063409;28;20232;-70
2022/10/07 02:53:26;;;;;;;14.23;7.80;;;;;;;;;;5066166;27;20258;-70
2022/10/07 02:55:53;;;;;;;13.00;7.55;;;;;;;;;;5063564;27;20696;-69
2022/10/07 02:58:21;;;;;;;13.85;6.95;;;;;;;;;;5065868;27;20253;-70
2022/10/07 03:00:51;;;;;;;13.00;6.78;;;;;;;;;;5063706;27;20197;-70
2022/10/07 03:03:18;;;;;;;14.52;8.50;;;;;;;;;;5066198;27;20265;-69
2022/10/07 03:05:47;;;;;;;11.80;7.30;;;;;;;;;;5066623;27;20201;-70
2022/10/07 03:08:15;;;;;;;8.48;6.40;;;;;;;;;;5062468;27;20209;-70
2022/10/07 03:10:41;;;;;;;9.93;7.28;;;;;;;;;;5064912;27;21922;-69
2022/10/07 03:13:08;;;;;;;15.90;6.72;;;;;;;;;;5062584;27;20333;-70
2022/10/07 03:15:36;;;;;;;9.88;6.50;;;;;;;;;;5065158;27;20263;-69
2022/10/07 03:18:03;;;;;;;9.40;6.45;;;;;;;;;;5062569;27;20710;-69
2022/10/07 03:20:31;;;;;;;10.88;6.95;;;;;;;;;;5061902;27;20706;-70
2022/10/07 03:22:58;;;;;;;13.13;7.00;;;;;;;;;;5064445;27;20212;-70
2022/10/07 03:25:26;;;;;;;11.93;7.18;;;;;;;;;;5065651;27;20278;-70
2022/10/07 03:27:53;;;;;;;17.92;7.05;;;;;;;;;;5064382;27;20982;-70
2022/10/07 03:30:21;;;;;;;9.43;6.50;;;;;;;;;;5063036;27;20277;-69
2022/10/07 03:32:48;;;;;;;11.85;7.47;;;;;;;;;;5064908;28;20625;-70
2022/10/07 03:35:14;;;;;;;11.05;7.30;;;;;;;;;;5063885;28;20205;-70
2022/10/07 03:37:41;;;;;;;16.15;7.82;;;;;;;;;;5066168;27;20200;-70
2022/10/07 03:40:08;;;;;;;9.02;6.82;;;;;;;;;;5061927;28;20215;-70
2022/10/07 03:42:36;;;;;;;12.35;6.88;;;;;;;;;;5062909;28;20683;-70
2022/10/07 03:45:02;;;;;;;17.40;8.45;;;;;;;;;;5065081;28;20229;-70
2022/10/07 03:47:29;;;;;;;13.90;8.52;;;;;;;;;;5062355;27;20205;-70
2022/10/07 03:49:56;;;;;;;17.10;11.82;;;;;;;;;;5060541;28;20229;-71
2022/10/07 03:52:23;;;;;;;12.80;7.40;;;;;;;;;;5063074;28;20255;-71
2022/10/07 03:54:49;;;;;;;7.30;6.25;;;;;;;;;;5066403;28;20201;-70
2022/10/07 04:00:02;;;;;;;9.35;6.47;;;;;;;;;;5063363;28;20584;-70
2022/10/07 04:02:29;;;;;;;9.43;6.07;;;;;;;;;;5062710;27;20197;-71
2022/10/07 04:04:55;;;;;;;18.20;6.47;;;;;;;;;;5064773;28;20201;-70
2022/10/07 04:07:22;;;;;;;13.32;6.50;;;;;;;;;;5063005;28;20233;-70
2022/10/07 04:09:48;;;;;;;14.65;6.35;;;;;;;;;;5064226;28;20289;-70
2022/10/07 04:12:15;;;;;;;8.30;6.43;;;;;;;;;;5060920;28;20269;-70
2022/10/07 04:14:43;;;;;;;12.40;8.77;;;;;;;;;;5065180;28;20594;-71
2022/10/07 04:17:11;;;;;;;61.22;34.65;;;;;;;;;;5061040;28;20690;-71
2022/10/07 04:19:37;;;;;;;18.88;12.65;;;;;;;;;;5062036;28;20285;-71
2022/10/07 04:22:05;;;;;;;13.00;7.95;;;;;;;;;;5064626;28;20209;-69
2022/10/07 04:24:33;;;;;;;11.82;6.95;;;;;;;;;;5064094;28;20292;-69
2022/10/07 04:26:59;;;;;;;7.82;7.05;;;;;;;;;;5063667;28;20254;-69
2022/10/07 04:29:26;;;;;;;14.63;7.60;;;;;;;;;;5064610;28;20298;-70
2022/10/07 04:31:53;;;;;;;28.20;18.02;;;;;;;;;;5063521;28;20196;-70
2022/10/07 04:34:21;;;;;;;44.95;26.10;;;;;;;;;;5063396;28;20243;-70
2022/10/07 04:36:47;;;;;;;17.50;10.20;;;;;;;;;;5063868;28;20205;-70
2022/10/07 04:39:14;;;;;;;9.75;7.53;;;;;;;;;;5062607;28;20262;-70
2022/10/07 04:41:41;;;;;;;15.98;9.35;;;;;;;;;;5062406;28;20201;-69
2022/10/07 04:44:07;;;;;;;22.88;8.55;;;;;;;;;;5063768;28;20210;-69
2022/10/07 04:46:33;;;;;;;14.07;9.07;;;;;;;;;;5063439;28;20271;-69
2022/10/07 04:49:00;;;;;;;23.33;11.13;;;;;;;;;;5063885;28;20208;-69
2022/10/07 04:51:29;;;;;;;15.85;10.73;;;;;;;;;;5068052;27;20783;-69
2022/10/07 04:53:56;;;;;;;24.15;11.40;;;;;;;;;;5066380;27;20205;-70
2022/10/07 04:56:23;;;;;;;20.45;10.05;;;;;;;;;;5066773;28;20294;-71
2022/10/07 04:58:49;;;;;;;18.48;10.75;;;;;;;;;;5067600;27;20233;-69
2022/10/07 05:01:16;;;;;;;17.58;12.40;;;;;;;;;;5068032;27;20190;-71
2022/10/07 05:03:42;;;;;;;24.75;13.40;;;;;;;;;;5067672;27;20197;-69
2022/10/07 05:06:09;;;;;;;30.00;12.20;;;;;;;;;;5069673;27;20248;-68
2022/10/07 05:08:36;;;;;;;20.77;10.82;;;;;;;;;;5065388;27;20197;-68
2022/10/07 05:11:03;;;;;;;15.38;10.23;;;;;;;;;;5065697;27;20236;-68
2022/10/07 05:13:30;;;;;;;16.50;8.80;;;;;;;;;;5066434;27;20208;-71
2022/10/07 05:15:57;;;;;;;8.45;7.05;;;;;;;;;;5066698;27;20269;-70
2022/10/07 05:18:25;;;;;;;11.73;6.80;;;;;;;;;;5064883;27;20205;-71
2022/10/07 05:20:51;;;;;;;17.05;8.80;;;;;;;;;;5065357;27;20205;-71
2022/10/07 05:23:18;;;;;;;21.00;10.07;;;;;;;;;;5066566;27;20213;-70
2022/10/07 05:25:46;;;;;;;16.20;9.45;;;;;;;;;;5065509;27;20217;-69
2022/10/07 05:28:14;;;;;;;21.17;9.15;;;;;;;;;;5065537;27;20691;-70
2022/10/07 05:30:40;;;;;;;12.85;9.15;;;;;;;;;;5066433;27;20325;-70
2022/10/07 05:33:08;;;;;;;12.32;7.47;;;;;;;;;;5077546;22;21910;-73
2022/10/07 05:35:35;;;;;;;18.30;9.02;;;;;;;;;;5054284;28;20197;-70
2022/10/07 05:38:02;;;;;;;15.43;11.02;;;;;;;;;;5053875;28;20250;-71
2022/10/07 05:40:28;;;;;;;10.95;8.23;;;;;;;;;;5051040;28;20198;-68
2022/10/07 05:42:56;;;;;;;10.93;7.85;;;;;;;;;;5054239;28;20201;-70
2022/10/07 05:45:22;;;;;;;16.95;8.77;;;;;;;;;;5052450;28;20246;-67
2022/10/07 05:47:49;;;;;;;11.07;8.00;;;;;;;;;;5053586;28;20291;-71
2022/10/07 05:50:16;;;;;;;16.42;7.85;;;;;;;;;;5052861;28;20229;-71
2022/10/07 05:52:44;;;;;;;9.75;7.93;;;;;;;;;;5051502;28;21892;-69
2022/10/07 05:55:10;;;;;;;16.25;7.22;;;;;;;;;;5052626;28;20243;-70
2022/10/07 05:57:38;;;;;;;10.75;6.70;;;;;;;;;;5053887;28;20201;-69
2022/10/07 06:00:07;;;;;;;12.48;8.75;;;;;;;;;;5053403;28;20623;-70
2022/10/07 06:02:34;;;;;;;23.30;8.10;;;;;;;;;;5052495;28;20213;-69
2022/10/07 06:05:01;;;;;;;21.52;10.40;;;;;;;;;;5050781;28;20206;-69
2022/10/07 06:07:28;;;;;;;13.18;9.02;;;;;;;;;;5044360;28;20279;-69
2022/10/07 06:15:24;;;;;;;22.83;10.93;;;;;;;;;;5040518;28;20259;-69
2022/10/07 06:17:50;;;;;;;10.70;9.65;;;;;;;;;;5042761;28;20296;-70
2022/10/07 06:20:17;;;;;;;17.70;10.98;;;;;;;;;;5042139;28;20243;-69
2022/10/07 06:22:43;;;;;;;21.88;10.30;;;;;;;;;;5038948;28;20918;-69
2022/10/07 06:25:10;;;;;;;16.05;10.15;;;;;;;;;;5041371;28;20328;-71
2022/10/07 06:27:36;;;;;;;15.52;10.85;;;;;;;;;;5041312;28;20876;-70
2022/10/07 06:30:03;;;;;;;12.45;10.70;;;;;;;;;;5040265;28;20338;-70
2022/10/07 06:32:31;;;;;;;13.07;9.18;;;;;;;;;;5041067;28;20252;-70
2022/10/07 06:34:58;;;;;;;17.63;9.25;;;;;;;;;;5039893;28;20197;-70
2022/10/07 06:37:24;;;;;;;10.55;8.98;;;;;;;;;;5042077;28;20210;-71
2022/10/07 06:39:51;;;;;;;14.57;8.57;;;;;;;;;;5041973;28;20197;-69
2022/10/07 06:42:18;;;;;;;14.57;8.43;;;;;;;;;;5041235;28;20203;-69
2022/10/07 06:44:44;;;;;;;14.90;8.50;;;;;;;;;;5040827;28;20692;-70
2022/10/07 06:47:10;;;;;;;14.65;8.95;;;;;;;;;;5041026;28;20698;-71
2022/10/07 06:49:38;;;;;;;11.23;10.07;;;;;;;;;;5041062;28;20706;-70
2022/10/07 06:52:05;;;;;;;20.30;12.73;;;;;;;;;;5038936;28;20829;-71
2022/10/07 06:54:33;;;;;;;23.23;11.85;;;;;;;;;;5040552;28;20205;-70
2022/10/07 06:56:59;;;;;;;21.98;12.07;;;;;;;;;;5040221;28;20667;-70
2022/10/07 06:59:26;;;;;;;18.88;12.05;;;;;;;;;;5041395;28;20295;-71
2022/10/07 07:01:52;;;;;;;19.05;12.15;;;;;;;;;;5039873;28;20275;-71
2022/10/07 07:04:19;;;;;;;16.92;11.02;;;;;;;;;;5039748;28;20724;-71
2022/10/07 07:06:47;;;;;;;12.23;10.35;;;;;;;;;;5039659;28;20657;-71
2022/10/07 07:09:13;;;;;;;17.88;8.65;;;;;;;;;;5041827;28;20258;-70
2022/10/07 07:11:42;;;;;;;12.25;8.15;;;;;;;;;;5039269;28;20226;-70
2022/10/07 07:14:10;;;;;;;18.55;9.45;;;;;;;;;;5039852;28;20358;-71
2022/10/07 07:16:37;;;;;;;13.95;7.65;;;;;;;;;;5040782;28;20721;-70
2022/10/07 07:19:06;;;;;;;15.98;6.50;;;;;;;;;;5040161;28;20205;-70
2022/10/07 07:21:33;;;;;;;12.35;8.32;;;;;;;;;;5039275;28;21059;-70
2022/10/07 07:24:01;;;;;;;12.85;7.15;;;;;;;;;;5040420;28;20209;-71
2022/10/07 07:26:28;;;;;;;13.55;6.78;;;;;;;;;;5038068;28;20278;-71
2022/10/07 07:28:57;;;;;;;7.78;6.53;;;;;;;;;;5041855;28;20258;-69
2022/10/07 07:31:24;;;;;;;7.47;6.70;;;;;;;;;;5037679;28;20226;-68
2022/10/07 07:33:52;;;;;;;12.50;6.97;;;;;;;;;;5040267;28;20240;-70
2022/10/07 07:36:19;;;;;;;15.43;9.45;;;;;;;;;;5040167;28;20211;-71
2022/10/07 07:38:50;;;;;;;14.00;8.27;;;;;;;;;;5038379;28;20295;-70
2022/10/07 07:41:18;;;;;;;11.43;6.78;;;;;;;;;;5038880;28;20202;-71
2022/10/07 07:43:47;;;;;;;11.32;6.32;;;;;;;;;;5040871;28;20198;-70
2022/10/07 07:46:14;;;;;;;12.43;7.13;;;;;;;;;;5040275;28;20746;-71
2022/10/07 07:48:40;;;;;;;9.95;5.75;;;;;;;;;;5041436;28;20311;-70
2022/10/07 07:51:07;;;;;;;7.65;5.53;;;;;;;;;;5039893;28;20286;-70
2022/10/07 07:53:34;;;;;;;5.55;4.55;;;;;;;;;;5040320;28;20638;-71
2022/10/07 07:56:01;;;;;;;10.52;4.70;;;;;;;;;;5039224;28;20512;-70
2022/10/07 07:58:29;;;;;;;6.43;4.28;;;;;;;;;;5040220;28;20267;-70
2022/10/07 08:00:59;;;;;;;5.03;3.92;;;;;;;;;;5039263;28;20289;-70
2022/10/07 08:03:26;;;;;;;8.55;4.97;;;;;;;;;;5039883;28;20206;-70
2022/10/07 08:05:53;;;;;;;8.20;5.43;;;;;;;;;;5040200;28;22275;-70
2022/10/07 08:08:19;;;;;;;8.27;5.35;;;;;;;;;;5040937;28;20206;-71
2022/10/07 08:10:46;;;;;;;10.52;5.03;;;;;;;;;;5039510;28;20213;-70
2022/10/07 08:13:12;;;;;;;12.18;5.50;;;;;;;;;;5039641;28;20210;-70
2022/10/07 08:15:40;;;;;;;8.45;4.00;;;;;;;;;;5039043;28;20203;-70
2022/10/07 08:18:07;;;;;;;5.60;3.28;;;;;;;;;;5039924;28;20197;-70
2022/10/07 08:20:35;;;;;;;8.27;5.07;;;;;;;;;;5038495;28;20304;-71
2022/10/07 08:23:01;;;;;;;11.27;4.93;;;;;;;;;;5042479;28;20194;-72
2022/10/07 08:25:28;;;;;;;9.27;5.13;;;;;;;;;;5041724;28;21155;-71
2022/10/07 08:27:55;;;;;;;5.45;3.70;;;;;;;;;;5041809;28;20228;-69
2022/10/07 08:30:22;;;;;;;5.38;3.55;;;;;;;;;;5041102;28;20332;-71
2022/10/07 08:32:50;;;;;;;6.32;3.55;;;;;;;;;;5042947;28;20229;-71
2022/10/07 08:35:17;;;;;;;3.95;3.65;;;;;;;;;;5042781;28;20276;-70
2022/10/07 08:37:43;;;;;;;11.18;4.80;;;;;;;;;;5044275;28;20210;-69
2022/10/07 08:40:14;;;;;;;5.40;4.18;;;;;;;;;;5044011;28;20336;-69
2022/10/07 08:42:42;;;;;;;4.07;3.47;;;;;;;;;;5040859;28;20209;-69
2022/10/07 08:45:11;;;;;;;3.70;2.83;;;;;;;;;;5041600;28;20198;-70
2022/10/07 08:47:39;;;;;;;4.10;3.65;;;;;;;;;;5041570;28;20193;-66
2022/10/07 08:50:11;;;;;;;4.85;3.70;;;;;;;;;;5039365;28;20209;-66
2022/10/07 08:52:44;;;;;;;5.38;3.40;;;;;;;;;;5043393;28;20276;-65
2022/10/07 08:55:15;;;;;;;4.25;3.33;;;;;;;;;;5040879;28;21844;-66
2022/10/07 08:57:47;;;;;;;4.03;2.80;;;;;;;;;;5044837;28;20209;-66
2022/10/07 09:00:16;;;;;;;5.50;2.60;;;;;;;;;;5043133;28;21167;-68
2022/10/07 09:02:49;;;;;;;5.07;3.03;;;;;;;;;;5042887;28;20322;-67
2022/10/07 09:05:20;;;;;;;6.03;2.85;;;;;;;;;;5041564;28;20195;-66
2022/10/07 09:07:49;;;;;;;4.95;3.08;;;;;;;;;;5043322;28;20233;-66
2022/10/07 09:10:23;;;;;;;2.40;2.03;;;;;;;;;;5040992;28;20210;-64
2022/10/07 09:12:52;;;;;;;5.75;3.20;;;;;;;;;;5042748;28;20232;-66
2022/10/07 09:15:20;;;;;;;3.70;2.97;;;;;;;;;;5039652;28;20222;-67
2022/10/07 09:17:51;;;;;;;3.45;2.90;;;;;;;;;;5043165;28;20233;-68
2022/10/07 09:20:19;;;;;;;4.63;2.50;;;;;;;;;;5047947;28;20243;-69
2022/10/07 09:22:50;;;;;;;2.33;2.22;;;;;;;;;;5069186;28;20203;-67
2022/10/07 09:25:19;;;;;;;2.90;2.35;;;;;;;;;;5070020;28;20202;-70
2022/10/07 09:27:45;;;;;;;2.75;2.05;;;;;;;;;;5070588;28;20818;-70
2022/10/07 09:30:13;;;;;;;5.82;3.55;;;;;;;;;;5069644;28;20194;-70
2022/10/07 09:32:40;;;;;;;2.55;2.35;;;;;;;;;;5071665;28;20665;-69
2022/10/07 09:35:11;;;;;;;7.70;1.98;;;;;;;;;;5072288;28;20225;-70
2022/10/07 09:37:53;;;;;;;9.80;2.53;;;;;;;;;;5071224;28;20248;-71
2022/10/07 09:40:20;;;;;;;4.57;2.20;;;;;;;;;;5072980;28;20741;-70
2022/10/07 09:42:48;;;;;;;5.22;2.50;;;;;;;;;;5072729;28;20195;-71
2022/10/07 09:45:19;;;;;;;3.85;2.90;;;;;;;;;;5072991;28;20209;-70
2022/10/07 09:47:51;;;;;;;8.38;2.60;;;;;;;;;;5073007;28;20202;-69
2022/10/07 09:50:29;;;;;;;5.57;2.83;;;;;;;;;;5072355;28;20194;-69
2022/10/07 09:52:57;;;;;;;2.40;2.15;;;;;;;;;;5072743;28;20225;-69
2022/10/07 09:55:30;;;;;;;6.32;2.47;;;;;;;;;;5072930;28;20202;-69
2022/10/07 09:58:00;;;;;;;2.78;2.38;;;;;;;;;;5072586;28;20195;-70
2022/10/07 10:00:26;;;;;;;2.97;2.60;;;;;;;;;;5071288;28;20668;-70
2022/10/07 10:02:54;;;;;;;5.35;2.55;;;;;;;;;;5071243;28;20588;-71
2022/10/07 10:05:22;;;;;;;2.78;2.58;;;;;;;;;;5071204;28;20707;-70
2022/10/07 10:07:52;;;;;;;4.20;2.65;;;;;;;;;;5070922;28;20218;-70
2022/10/07 10:10:22;;;;;;;5.35;2.50;;;;;;;;;;5071286;28;20199;-72
2022/10/07 10:12:49;;;;;;;2.92;2.47;;;;;;;;;;5071170;28;20218;-71
2022/10/07 10:15:23;;;;;;;2.83;2.50;;;;;;;;;;5072736;28;20252;-70
2022/10/07 10:17:50;;;;;;;2.75;1.98;;;;;;;;;;5072261;28;20195;-71
2022/10/07 10:20:24;;;;;;;4.93;2.70;;;;;;;;;;5072705;28;20776;-70
2022/10/07 10:22:51;;;;;;;2.45;2.35;;;;;;;;;;5072621;28;20189;-71
2022/10/07 10:28:06;;;;;;;1.90;1.80;;;;;;;;;;5072355;28;20204;-71
2022/10/07 10:30:34;;;;;;;2.30;2.10;;;;;;;;;;5072359;28;20198;-70
2022/10/07 10:33:08;;;;;;;2.00;1.90;;;;;;;;;;5071793;28;20230;-70
2022/10/07 10:35:38;;;;;;;5.70;1.80;;;;;;;;;;5071460;28;20632;-70
2022/10/07 10:38:12;;;;;;;2.20;2.00;;;;;;;;;;5071150;28;20206;-71
2022/10/07 10:40:41;;;;;;;1.63;1.52;;;;;;;;;;5072188;28;20198;-69
2022/10/07 10:43:15;;;;;;;2.20;2.10;;;;;;;;;;5072375;28;20218;-71
2022/10/07 10:45:46;;;;;;;2.00;1.90;;;;;;;;;;5070991;28;20221;-71
2022/10/07 10:48:23;;;;;;;6.63;2.10;;;;;;;;;;5071454;28;20727;-71
2022/10/07 10:50:53;;;;;;;1.95;1.70;;;;;;;;;;5071742;28;20259;-71
2022/10/07 10:53:28;;;;;;;1.85;1.75;;;;;;;;;;5071936;28;20284;-71
2022/10/07 10:56:07;;;;;;;3.97;2.35;;;;;;;;;;5071606;28;20237;-70
2022/10/07 10:58:41;;;;;;;2.70;1.70;;;;;;;;;;5072011;28;20205;-70
2022/10/07 11:01:10;;;;;;;3.25;2.22;;;;;;;;;;5071669;28;20204;-70
2022/10/07 11:03:45;;;;;;;3.15;1.90;;;;;;;;;;5071776;28;20708;-71
2022/10/07 11:06:12;;;;;;;6.68;2.03;;;;;;;;;;5071559;28;20225;-71
2022/10/07 11:08:40;;;;;;;3.92;1.83;;;;;;;;;;5072061;28;20297;-71
2022/10/07 11:11:07;;;;;;;3.05;1.80;;;;;;;;;;5071394;28;20216;-73
2022/10/07 11:13:37;;;;;;;2.15;2.05;;;;;;;;;;5071800;28;20233;-71
2022/10/07 11:16:08;;;;;;;3.50;1.80;;;;;;;;;;5071465;28;20230;-71
2022/10/07 11:18:37;;;;;;;1.77;1.48;;;;;;;;;;5072016;28;20285;-71
2022/10/07 11:21:06;;;;;;;6.30;1.90;;;;;;;;;;5071095;28;20283;-72
2022/10/07 11:23:40;;;;;;;3.15;2.22;;;;;;;;;;5071743;28;20279;-71
2022/10/07 11:26:11;;;;;;;4.63;1.83;;;;;;;;;;5071205;28;20706;-71
2022/10/07 11:28:39;;;;;;;2.70;2.38;;;;;;;;;;5071642;28;20275;-71
2022/10/07 11:31:09;;;;;;;1.80;1.70;;;;;;;;;;5071433;28;20252;-71
2022/10/07 11:33:39;;;;;;;2.28;2.17;;;;;;;;;;5090985;28;20362;-71
2022/10/07 11:36:09;;;;;;;1.73;1.50;;;;;;;;;;5091439;28;20667;-71
2022/10/07 11:38:36;;;;;;;1.40;1.40;;;;;;;;;;5091548;28;20202;-71
2022/10/07 11:41:06;;;;;;;5.13;1.75;;;;;;;;;;5091205;28;20193;-71
2022/10/07 11:43:35;;;;;;;2.72;1.70;;;;;;;;;;5090947;28;20559;-70
2022/10/07 11:46:03;;;;;;;3.20;1.70;;;;;;;;;;5091183;28;20206;-70
2022/10/07 11:48:35;;;;;;;1.65;1.55;;;;;;;;;;5091004;28;20255;-71
2022/10/07 11:51:05;;;;;;;2.15;1.80;;;;;;;20.81;nan;95960.47;5089119;28;20259;-70
2022/10/07 11:53:34;;;;;;;2.17;1.95;;;;;;;;;;5089532;28;20290;-70
2022/10/07 11:56:03;;;;;;;2.30;1.98;;;;;;;;;;5089015;28;20194;-70
2022/10/07 11:58:31;;;;;;;2.55;2.25;;;;;;;;;;5089323;28;20703;-70
2022/10/07 12:01:16;;;;;;;1.92;1.83;;;;;;;;;;5088830;28;20212;-69
2022/10/07 12:03:47;;;;;;;1.70;1.60;;;;;;;;;;5089286;28;20667;-70
2022/10/07 12:06:14;;;;;;;4.15;1.80;;;;;;;;;;5090748;28;20664;-70
2022/10/07 12:08:40;;;;;;;4.07;2.20;;;;;;;;;;5091529;28;20251;-70
2022/10/07 12:11:25;;;;;;;4.60;2.33;;;;;;;;;;5090615;28;20229;-70
2022/10/07 12:13:52;;;;;;;4.60;1.80;;;;;;;;;;5090915;28;20221;-70
2022/10/07 12:16:37;;;;;;;2.97;2.05;;;;;;;;;;5089497;28;20197;-70
2022/10/07 12:19:18;;;;;;;3.95;1.80;;;;;;;;;;5091107;28;20193;-70
2022/10/07 12:22:04;;;;;;;2.47;2.17;;;;;;;;;;5090430;28;20197;-71
2022/10/07 12:24:31;;;;;;;2.00;1.90;;;;;;;;;;5090907;28;20582;-69
2022/10/07 12:27:05;;;;;;;2.30;2.03;;;;;;;;;;5090723;28;20198;-70
2022/10/07 12:29:57;;;;;;;1.70;1.60;;;;;;;;;;5090545;28;20766;-70
2022/10/07 12:32:56;;;;;;;2.05;1.80;;;;;;;;;;5086401;28;20229;-70
2022/10/07 12:35:41;;;;;;;1.80;1.70;;;;;;;;;;5089728;28;20650;-69
2022/10/07 12:38:14;;;;;;;3.22;1.92;;;;;;;;;;5090892;28;20205;-71
2022/10/07 12:40:42;;;;;;;9.35;6.43;;;;;;;;;;5090591;28;20198;-71
2022/10/07 12:43:19;;;;;;;17.48;13.73;;;;;;;;;;5090776;28;20284;-69
2022/10/07 12:45:46;;;;;;;8.45;7.05;;;;;;;20.85;nan;95957.59;5090806;28;20198;-69
2022/10/07 12:48:16;;;;;;;12.38;8.15;;;;;;;;;;5090790;28;20193;-69
2022/10/07 12:50:44;;;;;;;2.15;2.05;;;;;;;;;;5090129;28;20193;-70
2022/10/07 12:53:11;;;;;;;2.22;2.00;;;;;;;;;;5090491;28;20305;-70
2022/10/07 12:55:42;;;;;;;2.00;1.90;;;;;;;;;;5090558;28;20193;-69
2022/10/07 13:01:07;;;;;;;3.60;1.67;;;;;;;;;;5090163;28;20591;-69
2022/10/07 13:03:52;;;;;;;3.30;1.55;;;;;;;;;;5090796;28;20194;-69
2022/10/07 13:06:36;;;;;;;1.77;1.60;;;;;;;;;;5090103;28;20251;-69
2022/10/07 13:09:33;;;;;;;2.10;1.90;;;;;;;;;;5092330;28;20671;-70
2022/10/07 13:12:11;;;;;;;2.90;1.73;;;;;;;;;;5031361;28;20253;-70
2022/10/07 13:14:42;;;;;;;2.72;1.73;;;;;;;;;;5083558;28;20259;-69
2022/10/07 13:17:17;;;;;;;2.08;1.88;;;;;;;;;;5093754;28;20683;-69
2022/10/07 13:19:48;;;;;;;6.68;1.50;;;;;;;;;;5093843;28;20628;-69
2022/10/07 13:22:16;;;;;;;2.50;1.73;;;;;;;;;;5093813;28;20263;-69
2022/10/07 13:24:45;;;;;;;2.65;2.28;;;;;;;;;;5094320;28;20197;-69
2022/10/07 13:27:18;;;;;;;4.05;1.48;;;;;;;20.68;nan;95934.53;5093999;28;20280;-69
2022/10/07 13:29:45;;;;;;;2.30;2.05;;;;;;;;;;5093695;28;20190;-69
2022/10/07 13:32:14;;;;;;;1.83;1.73;;;;;;;;;;5092180;28;20237;-70
2022/10/07 13:34:40;;;;;;;2.00;1.90;;;;;;;;;;5053449;28;20219;-70
2022/10/07 13:37:24;;;;;;;4.32;2.00;;;;;;;;;;5053542;28;20196;-69
2022/10/07 13:39:51;;;;;;;2.15;1.75;;;;;;;;;;5053404;28;20206;-69
2022/10/07 13:42:19;;;;;;;2.50;2.13;;;;;;;;;;5053108;28;20253;-70
2022/10/07 13:44:45;;;;;;;1.77;1.67;;;;;;;;;;5053265;28;20226;-70
2022/10/07 13:47:17;;;;;;;3.10;1.83;;;;;;;;;;5052892;28;20631;-69
2022/10/07 13:49:45;;;;;;;4.25;2.05;;;;;;;;;;5053109;28;20203;-70
2022/10/07 13:52:18;;;;;;;3.83;2.05;;;;;;;;;;5053006;28;20234;-70
2022/10/07 13:54:49;;;;;;;2.13;1.98;;;;;;;;;;5052897;28;20725;-70
2022/10/07 13:57:17;;;;;;;2.25;1.55;;;;;;;;;;5052865;28;20708;-71
2022/10/07 13:59:45;;;;;;;1.67;1.58;;;;;;;;;;5052789;28;20195;-70
2022/10/07 14:02:14;;;;;;;4.20;2.50;;;;;;;;;;5052274;28;20264;-69
2022/10/07 14:04:49;;;;;;;4.68;2.92;;;;;;;;;;5052909;28;20209;-69
2022/10/07 14:07:16;;;;;;;6.57;4.75;;;;;;;;;;5052285;28;20226;-69
2022/10/07 14:09:44;;;;;;;9.35;2.40;;;;;;;;;;5052879;28;20264;-69
2022/10/07 14:12:13;;;;;;;2.42;2.22;;;;;;;;;;5052240;28;20747;-70
2022/10/07 14:14:41;;;;;;;1.70;1.60;;;;;;;;;;5052681;28;20304;-70
2022/10/07 14:17:11;;;;;;;3.20;2.53;;;;;;;;;;5052763;28;20210;-70
2022/10/07 14:19:38;;;;;;;5.72;2.15;;;;;;;;;;5052583;28;20199;-70
2022/10/07 14:22:14;;;;;;;5.18;2.08;;;;;;;;;;5051900;28;20260;-70
2022/10/07 14:24:41;;;;;;;2.45;2.30;;;;;;;;;;5052390;28;20190;-70
2022/10/07 14:27:22;;;;;;;2.08;1.98;;;;;;;;;;5052780;28;20669;-69
2022/10/07 14:29:48;;;;;;;4.45;2.40;;;;;;;;;;5052271;28;20213;-69
2022/10/07 14:35:19;;;;;;;2.95;2.20;;;;;;;;;;5052211;28;20199;-70
2022/10/07 14:37:46;;;;;;;4.55;2.10;;;;;;;;;;5051883;28;20206;-70
2022/10/07 14:40:16;;;;;;;2.75;1.92;;;;;;;;;;5052190;28;20256;-71
2022/10/07 14:42:43;;;;;;;7.90;2.22;;;;;;;;;;5051793;28;20198;-71
2022/10/07 14:45:14;;;;;;;2.78;2.17;;;;;;;;;;5052332;28;20261;-71
2022/10/07 14:47:43;;;;;;;3.05;2.40;;;;;;;;;;5051842;28;20245;-70
2022/10/07 14:50:10;;;;;;;3.58;2.53;;;;;;;;;;5052525;28;20586;-71
2022/10/07 14:52:38;;;;;;;2.97;2.78;;;;;;;;;;5052095;28;20281;-71
2022/10/07 14:55:06;;;;;;;3.92;2.65;;;;;;;;;;5051572;28;20309;-70
2022/10/07 14:57:33;;;;;;;2.45;2.25;;;;;;;;;;5052026;28;20237;-71
2022/10/07 14:59:59;;;;;;;2.85;2.65;;;;;;;;;;5051885;28;20237;-70
2022/10/07 15:02:26;;;;;;;3.65;2.00;;;;;;;;;;5051795;28;20265;-70